Woolstock, Iowa
Current Conditions -  °F | °C
As of 6:15 AM on Wednesday 28 Jan 2015 (Local Time) from KEBS Reporting Station
Haze Haze  
Wind Chill: 18°   Ceiling: 300
Heat Index: 30°   Visibility: 0.5mi
Dew Point: 30°   Wind: 20mph
Humidity: 100%   Direction: 140°SE
Pressure: 29.99"   Gusts: 26mph
Location:  42.57°N, 93.84°W
Report Text: KEBS 281215Z AUTO 14017G23KT 1/2SM BR OVC003 M01/M01 A2999 RMK AO2
Loading
Personal Weather Stations






























Interactive Weather Map New forecast layout! Learn more

10-Day Weather Forecast

Advertisements
Track Severe Weather on mobile